sensor_id;sensor_type;location;lat;lon;timestamp;temperature;humidity
7445;DHT22;3764;48.126;11.594;2023-07-08T00:02:11;21.10;95.00
7445;DHT22;3764;48.126;11.594;2023-07-08T00:05:18;20.90;95.20
7445;DHT22;3764;48.126;11.594;2023-07-08T00:08:52;20.90;95.20
7445;DHT22;3764;48.126;11.594;2023-07-08T00:12:53;21.00;95.20
7445;DHT22;3764;48.126;11.594;2023-07-08T00:15:33;20.90;95.60
7445;DHT22;3764;48.126;11.594;2023-07-08T00:18:52;20.90;95.40
7445;DHT22;3764;48.126;11.594;2023-07-08T00:21:46;20.80;95.50
7445;DHT22;3764;48.126;11.594;2023-07-08T00:24:46;20.80;95.80
7445;DHT22;3764;48.126;11.594;2023-07-08T00:27:58;20.80;95.20
7445;DHT22;3764;48.126;11.594;2023-07-08T00:30:55;21.50;95.80
7445;DHT22;3764;48.126;11.594;2023-07-08T00:34:20;20.80;95.80
7445;DHT22;3764;48.126;11.594;2023-07-08T00:36:58;20.70;95.50
7445;DHT22;3764;48.126;11.594;2023-07-08T00:40:14;20.70;95.60
7445;DHT22;3764;48.126;11.594;2023-07-08T00:43:27;21.10;96.10
7445;DHT22;3764;48.126;11.594;2023-07-08T00:46:31;21.00;96.10
7445;DHT22;3764;48.126;11.594;2023-07-08T00:49:26;20.60;96.10
7445;DHT22;3764;48.126;11.594;2023-07-08T00:52:37;20.60;96.20
7445;DHT22;3764;48.126;11.594;2023-07-08T01:05:29;20.40;96.70
7445;DHT22;3764;48.126;11.594;2023-07-08T01:08:35;20.40;96.80
7445;DHT22;3764;48.126;11.594;2023-07-08T01:11:36;20.80;97.30
7445;DHT22;3764;48.126;11.594;2023-07-08T01:14:48;20.40;97.30
7445;DHT22;3764;48.126;11.594;2023-07-08T01:18:35;20.30;97.30
7445;DHT22;3764;48.126;11.594;2023-07-08T01:21:59;20.30;97.40
7445;DHT22;3764;48.126;11.594;2023-07-08T01:24:45;20.20;97.50
7445;DHT22;3764;48.126;11.594;2023-07-08T01:31:32;20.20;97.70
7445;DHT22;3764;48.126;11.594;2023-07-08T01:41:28;20.10;97.70
7445;DHT22;3764;48.126;11.594;2023-07-08T01:44:01;20.10;97.50
7445;DHT22;3764;48.126;11.594;2023-07-08T01:46:57;20.10;97.90
7445;DHT22;3764;48.126;11.594;2023-07-08T01:49:57;20.00;97.90
7445;DHT22;3764;48.126;11.594;2023-07-08T01:56:58;20.00;98.00
7445;DHT22;3764;48.126;11.594;2023-07-08T02:00:05;20.00;98.10
7445;DHT22;3764;48.126;11.594;2023-07-08T02:03:02;19.90;98.20
7445;DHT22;3764;48.126;11.594;2023-07-08T02:06:25;19.90;98.40
7445;DHT22;3764;48.126;11.594;2023-07-08T02:09:19;19.90;98.10
7445;DHT22;3764;48.126;11.594;2023-07-08T02:11:59;19.80;98.40
7445;DHT22;3764;48.126;11.594;2023-07-08T02:14:33;19.80;98.30
7445;DHT22;3764;48.126;11.594;2023-07-08T02:17:25;19.80;98.30
7445;DHT22;3764;48.126;11.594;2023-07-08T02:20:00;19.80;98.60
7445;DHT22;3764;48.126;11.594;2023-07-08T02:22:47;19.80;98.60
7445;DHT22;3764;48.126;11.594;2023-07-08T02:26:20;19.80;98.60
7445;DHT22;3764;48.126;11.594;2023-07-08T02:29:10;19.70;98.40
7445;DHT22;3764;48.126;11.594;2023-07-08T02:31:53;19.70;98.30
7445;DHT22;3764;48.126;11.594;2023-07-08T02:34:22;19.70;98.70
7445;DHT22;3764;48.126;11.594;2023-07-08T02:37:23;19.70;98.60
7445;DHT22;3764;48.126;11.594;2023-07-08T02:39:56;19.70;98.90
7445;DHT22;3764;48.126;11.594;2023-07-08T02:42:42;19.70;98.60
7445;DHT22;3764;48.126;11.594;2023-07-08T02:45:24;20.00;98.90
7445;DHT22;3764;48.126;11.594;2023-07-08T02:48:07;19.60;98.90
7445;DHT22;3764;48.126;11.594;2023-07-08T02:50:45;19.60;98.80
7445;DHT22;3764;48.126;11.594;2023-07-08T02:53:44;19.60;98.70
7445;DHT22;3764;48.126;11.594;2023-07-08T02:56:31;19.60;98.90
7445;DHT22;3764;48.126;11.594;2023-07-08T02:59:14;19.60;98.90
7445;DHT22;3764;48.126;11.594;2023-07-08T03:04:56;19.50;99.10
7445;DHT22;3764;48.126;11.594;2023-07-08T03:07:31;19.50;99.10
7445;DHT22;3764;48.126;11.594;2023-07-08T03:10:08;19.50;98.90
7445;DHT22;3764;48.126;11.594;2023-07-08T03:13:20;19.50;98.90
7445;DHT22;3764;48.126;11.594;2023-07-08T03:16:36;19.50;98.90
7445;DHT22;3764;48.126;11.594;2023-07-08T03:26:56;19.50;99.50
7445;DHT22;3764;48.126;11.594;2023-07-08T03:32:30;19.50;99.80
7445;DHT22;3764;48.126;11.594;2023-07-08T03:35:08;19.10;99.40
7445;DHT22;3764;48.126;11.594;2023-07-08T03:37:40;19.50;99.90
7445;DHT22;3764;48.126;11.594;2023-07-08T03:40:13;19.50;99.70
7445;DHT22;3764;48.126;11.594;2023-07-08T03:42:44;19.50;99.90
7445;DHT22;3764;48.126;11.594;2023-07-08T03:46:01;19.40;99.70
7445;DHT22;3764;48.126;11.594;2023-07-08T03:49:31;19.40;99.90
7445;DHT22;3764;48.126;11.594;2023-07-08T04:00:24;19.40;99.90
7445;DHT22;3764;48.126;11.594;2023-07-08T04:03:12;19.40;99.90
7445;DHT22;3764;48.126;11.594;2023-07-08T04:05:46;19.40;99.90
7445;DHT22;3764;48.126;11.594;2023-07-08T04:08:35;19.30;99.90
7445;DHT22;3764;48.126;11.594;2023-07-08T04:11:05;19.40;99.90
7445;DHT22;3764;48.126;11.594;2023-07-08T04:14:10;19.20;99.90
7445;DHT22;3764;48.126;11.594;2023-07-08T04:20:17;19.10;99.90
7445;DHT22;3764;48.126;11.594;2023-07-08T04:22:58;19.10;99.90
7445;DHT22;3764;48.126;11.594;2023-07-08T04:25:33;19.00;99.90
7445;DHT22;3764;48.126;11.594;2023-07-08T04:28:12;19.00;99.90
7445;DHT22;3764;48.126;11.594;2023-07-08T04:30:48;19.00;99.90
7445;DHT22;3764;48.126;11.594;2023-07-08T04:33:43;18.90;99.90
7445;DHT22;3764;48.126;11.594;2023-07-08T04:36:20;19.00;99.90
7445;DHT22;3764;48.126;11.594;2023-07-08T04:39:12;19.00;99.90
7445;DHT22;3764;48.126;11.594;2023-07-08T04:41:40;19.00;99.90
7445;DHT22;3764;48.126;11.594;2023-07-08T04:44:17;18.90;99.90
7445;DHT22;3764;48.126;11.594;2023-07-08T04:46:57;18.90;99.90
7445;DHT22;3764;48.126;11.594;2023-07-08T04:49:29;18.90;99.90
7445;DHT22;3764;48.126;11.594;2023-07-08T04:52:07;18.80;99.90
7445;DHT22;3764;48.126;11.594;2023-07-08T04:54:42;18.80;99.90
7445;DHT22;3764;48.126;11.594;2023-07-08T04:57:13;18.70;99.90
7445;DHT22;3764;48.126;11.594;2023-07-08T04:59:49;18.70;99.90
7445;DHT22;3764;48.126;11.594;2023-07-08T05:02:27;18.70;99.90
7445;DHT22;3764;48.126;11.594;2023-07-08T05:05:12;18.70;99.90
7445;DHT22;3764;48.126;11.594;2023-07-08T05:07:42;18.70;99.90
7445;DHT22;3764;48.126;11.594;2023-07-08T05:10:15;18.80;99.90
7445;DHT22;3764;48.126;11.594;2023-07-08T05:12:46;18.90;99.90
7445;DHT22;3764;48.126;11.594;2023-07-08T05:15:27;18.90;99.90
7445;DHT22;3764;48.126;11.594;2023-07-08T05:18:02;18.90;99.90
7445;DHT22;3764;48.126;11.594;2023-07-08T05:20:31;19.00;99.90
7445;DHT22;3764;48.126;11.594;2023-07-08T05:23:00;19.00;99.90
7445;DHT22;3764;48.126;11.594;2023-07-08T05:25:32;19.10;99.90
7445;DHT22;3764;48.126;11.594;2023-07-08T05:27:59;19.10;99.90
7445;DHT22;3764;48.126;11.594;2023-07-08T05:30:26;19.10;99.90
7445;DHT22;3764;48.126;11.594;2023-07-08T05:32:54;19.10;99.90
7445;DHT22;3764;48.126;11.594;2023-07-08T05:35:21;19.10;99.90
7445;DHT22;3764;48.126;11.594;2023-07-08T05:37:49;19.10;99.90
7445;DHT22;3764;48.126;11.594;2023-07-08T05:40:16;19.10;99.90
7445;DHT22;3764;48.126;11.594;2023-07-08T05:42:43;19.10;99.90
7445;DHT22;3764;48.126;11.594;2023-07-08T05:45:10;19.20;99.90
7445;DHT22;3764;48.126;11.594;2023-07-08T05:47:37;19.20;99.90
7445;DHT22;3764;48.126;11.594;2023-07-08T05:50:05;19.30;99.90
7445;DHT22;3764;48.126;11.594;2023-07-08T05:52:33;19.20;99.90
7445;DHT22;3764;48.126;11.594;2023-07-08T05:55:01;19.30;99.90
7445;DHT22;3764;48.126;11.594;2023-07-08T05:57:28;19.30;99.90
7445;DHT22;3764;48.126;11.594;2023-07-08T05:59:55;19.30;99.90
7445;DHT22;3764;48.126;11.594;2023-07-08T06:02:22;19.30;99.90
7445;DHT22;3764;48.126;11.594;2023-07-08T06:04:51;19.40;99.90
7445;DHT22;3764;48.126;11.594;2023-07-08T06:07:18;19.30;99.90
7445;DHT22;3764;48.126;11.594;2023-07-08T06:09:45;19.30;99.90
7445;DHT22;3764;48.126;11.594;2023-07-08T06:12:14;19.40;99.90
7445;DHT22;3764;48.126;11.594;2023-07-08T06:14:41;19.40;99.90
7445;DHT22;3764;48.126;11.594;2023-07-08T06:17:09;19.40;99.90
7445;DHT22;3764;48.126;11.594;2023-07-08T06:19:36;19.40;99.90
7445;DHT22;3764;48.126;11.594;2023-07-08T06:22:03;19.50;99.90
7445;DHT22;3764;48.126;11.594;2023-07-08T06:24:30;19.50;99.90
7445;DHT22;3764;48.126;11.594;2023-07-08T06:26:57;19.50;99.90
7445;DHT22;3764;48.126;11.594;2023-07-08T06:29:26;19.50;99.90
7445;DHT22;3764;48.126;11.594;2023-07-08T06:31:53;19.60;99.90
7445;DHT22;3764;48.126;11.594;2023-07-08T06:34:20;19.60;99.90
7445;DHT22;3764;48.126;11.594;2023-07-08T06:36:49;19.60;99.90
7445;DHT22;3764;48.126;11.594;2023-07-08T06:39:16;19.70;99.90
7445;DHT22;3764;48.126;11.594;2023-07-08T06:41:43;19.70;99.90
7445;DHT22;3764;48.126;11.594;2023-07-08T06:44:10;19.80;99.90
7445;DHT22;3764;48.126;11.594;2023-07-08T06:46:39;19.80;99.90
7445;DHT22;3764;48.126;11.594;2023-07-08T06:49:06;19.80;99.90
7445;DHT22;3764;48.126;11.594;2023-07-08T06:51:34;19.90;99.90
7445;DHT22;3764;48.126;11.594;2023-07-08T06:54:01;19.90;99.90
7445;DHT22;3764;48.126;11.594;2023-07-08T06:56:30;20.00;99.90
7445;DHT22;3764;48.126;11.594;2023-07-08T06:58:57;20.00;99.90
7445;DHT22;3764;48.126;11.594;2023-07-08T07:01:24;20.10;99.90
7445;DHT22;3764;48.126;11.594;2023-07-08T07:03:53;20.10;99.90
7445;DHT22;3764;48.126;11.594;2023-07-08T07:06:20;20.10;99.90
7445;DHT22;3764;48.126;11.594;2023-07-08T07:08:47;20.10;99.90
7445;DHT22;3764;48.126;11.594;2023-07-08T07:11:14;20.10;99.90
7445;DHT22;3764;48.126;11.594;2023-07-08T07:13:41;20.20;99.90
7445;DHT22;3764;48.126;11.594;2023-07-08T07:16:08;20.20;99.90
7445;DHT22;3764;48.126;11.594;2023-07-08T07:18:35;20.20;99.90
7445;DHT22;3764;48.126;11.594;2023-07-08T07:21:03;20.20;99.90
7445;DHT22;3764;48.126;11.594;2023-07-08T07:23:30;20.20;99.90
7445;DHT22;3764;48.126;11.594;2023-07-08T07:25:57;20.30;99.90
7445;DHT22;3764;48.126;11.594;2023-07-08T07:28:25;20.30;99.90
7445;DHT22;3764;48.126;11.594;2023-07-08T07:30:56;20.30;99.90
7445;DHT22;3764;48.126;11.594;2023-07-08T07:33:23;20.30;99.90
7445;DHT22;3764;48.126;11.594;2023-07-08T07:35:50;20.40;99.90
7445;DHT22;3764;48.126;11.594;2023-07-08T07:38:19;20.40;99.90
7445;DHT22;3764;48.126;11.594;2023-07-08T07:40:46;20.40;99.90
7445;DHT22;3764;48.126;11.594;2023-07-08T07:43:13;20.40;99.90
7445;DHT22;3764;48.126;11.594;2023-07-08T07:45:40;20.40;99.90
7445;DHT22;3764;48.126;11.594;2023-07-08T07:48:07;20.50;99.90
7445;DHT22;3764;48.126;11.594;2023-07-08T07:50:34;20.50;99.90
7445;DHT22;3764;48.126;11.594;2023-07-08T07:53:01;20.50;99.90
7445;DHT22;3764;48.126;11.594;2023-07-08T07:55:30;20.60;99.90
7445;DHT22;3764;48.126;11.594;2023-07-08T07:57:57;20.60;99.90
7445;DHT22;3764;48.126;11.594;2023-07-08T08:00:24;20.60;99.90
7445;DHT22;3764;48.126;11.594;2023-07-08T08:02:51;20.60;99.90
7445;DHT22;3764;48.126;11.594;2023-07-08T08:05:18;20.60;99.90
7445;DHT22;3764;48.126;11.594;2023-07-08T08:07:45;20.70;99.90
7445;DHT22;3764;48.126;11.594;2023-07-08T08:10:13;20.70;99.90
7445;DHT22;3764;48.126;11.594;2023-07-08T08:12:42;20.80;99.90
7445;DHT22;3764;48.126;11.594;2023-07-08T08:15:10;20.80;99.90
7445;DHT22;3764;48.126;11.594;2023-07-08T08:17:37;20.90;99.90
7445;DHT22;3764;48.126;11.594;2023-07-08T08:20:05;20.90;99.90
7445;DHT22;3764;48.126;11.594;2023-07-08T08:22:32;21.00;99.90
7445;DHT22;3764;48.126;11.594;2023-07-08T08:24:59;21.00;99.90
7445;DHT22;3764;48.126;11.594;2023-07-08T08:27:27;21.00;99.90
7445;DHT22;3764;48.126;11.594;2023-07-08T08:29:56;21.00;99.90
7445;DHT22;3764;48.126;11.594;2023-07-08T08:32:23;21.10;99.90
7445;DHT22;3764;48.126;11.594;2023-07-08T08:34:50;21.10;99.90
7445;DHT22;3764;48.126;11.594;2023-07-08T08:37:17;21.20;99.90
7445;DHT22;3764;48.126;11.594;2023-07-08T08:39:44;21.20;99.90
7445;DHT22;3764;48.126;11.594;2023-07-08T08:42:16;21.20;99.90
7445;DHT22;3764;48.126;11.594;2023-07-08T08:44:47;21.20;99.90
7445;DHT22;3764;48.126;11.594;2023-07-08T08:47:25;21.30;99.90
7445;DHT22;3764;48.126;11.594;2023-07-08T08:49:59;21.30;99.90
7445;DHT22;3764;48.126;11.594;2023-07-08T08:52:27;21.30;99.90
7445;DHT22;3764;48.126;11.594;2023-07-08T08:54:54;21.40;99.90
7445;DHT22;3764;48.126;11.594;2023-07-08T08:57:31;21.40;99.90
7445;DHT22;3764;48.126;11.594;2023-07-08T08:59:59;21.40;99.90
7445;DHT22;3764;48.126;11.594;2023-07-08T09:02:34;21.50;99.90
7445;DHT22;3764;48.126;11.594;2023-07-08T09:05:06;21.50;99.90
7445;DHT22;3764;48.126;11.594;2023-07-08T09:07:38;21.50;99.90
7445;DHT22;3764;48.126;11.594;2023-07-08T09:10:13;21.50;99.90
7445;DHT22;3764;48.126;11.594;2023-07-08T09:12:42;21.60;99.90
7445;DHT22;3764;48.126;11.594;2023-07-08T09:15:13;21.60;99.90
7445;DHT22;3764;48.126;11.594;2023-07-08T09:17:42;21.70;99.90
7445;DHT22;3764;48.126;11.594;2023-07-08T09:20:17;21.70;99.90
7445;DHT22;3764;48.126;11.594;2023-07-08T09:22:51;21.70;99.90
7445;DHT22;3764;48.126;11.594;2023-07-08T09:25:25;21.80;99.90
7445;DHT22;3764;48.126;11.594;2023-07-08T09:27:53;21.80;99.90
7445;DHT22;3764;48.126;11.594;2023-07-08T09:30:23;21.90;99.90
7445;DHT22;3764;48.126;11.594;2023-07-08T09:32:51;21.90;99.90
7445;DHT22;3764;48.126;11.594;2023-07-08T09:35:21;22.00;99.90
7445;DHT22;3764;48.126;11.594;2023-07-08T09:37:49;22.00;99.90
7445;DHT22;3764;48.126;11.594;2023-07-08T09:40:18;22.00;99.90
7445;DHT22;3764;48.126;11.594;2023-07-08T09:42:52;22.10;99.90
7445;DHT22;3764;48.126;11.594;2023-07-08T09:45:20;22.10;99.90
7445;DHT22;3764;48.126;11.594;2023-07-08T09:47:55;22.10;99.90
7445;DHT22;3764;48.126;11.594;2023-07-08T09:50:24;22.20;99.90
7445;DHT22;3764;48.126;11.594;2023-07-08T09:52:53;22.20;99.90
7445;DHT22;3764;48.126;11.594;2023-07-08T09:55:20;22.20;99.90
7445;DHT22;3764;48.126;11.594;2023-07-08T09:57:50;22.30;99.90
7445;DHT22;3764;48.126;11.594;2023-07-08T10:00:24;22.30;99.90
7445;DHT22;3764;48.126;11.594;2023-07-08T10:02:56;22.30;99.90
7445;DHT22;3764;48.126;11.594;2023-07-08T10:05:28;22.30;99.90
7445;DHT22;3764;48.126;11.594;2023-07-08T10:07:58;22.40;99.90
7445;DHT22;3764;48.126;11.594;2023-07-08T10:10:32;22.40;99.90
7445;DHT22;3764;48.126;11.594;2023-07-08T10:13:03;22.50;99.90
7445;DHT22;3764;48.126;11.594;2023-07-08T10:15:35;22.50;99.90
7445;DHT22;3764;48.126;11.594;2023-07-08T10:18:07;22.60;99.90
7445;DHT22;3764;48.126;11.594;2023-07-08T10:20:48;22.60;99.90
7445;DHT22;3764;48.126;11.594;2023-07-08T10:23:27;22.60;99.90
7445;DHT22;3764;48.126;11.594;2023-07-08T10:26:10;22.70;99.90
7445;DHT22;3764;48.126;11.594;2023-07-08T10:28:45;22.70;99.90
7445;DHT22;3764;48.126;11.594;2023-07-08T10:31:23;22.70;99.90
7445;DHT22;3764;48.126;11.594;2023-07-08T10:36:50;22.80;99.90
7445;DHT22;3764;48.126;11.594;2023-07-08T10:39:34;22.80;99.90
7445;DHT22;3764;48.126;11.594;2023-07-08T10:42:16;22.90;99.90
7445;DHT22;3764;48.126;11.594;2023-07-08T10:44:57;23.00;99.90
7445;DHT22;3764;48.126;11.594;2023-07-08T10:47:37;23.00;99.90
7445;DHT22;3764;48.126;11.594;2023-07-08T10:50:28;23.10;99.90
7445;DHT22;3764;48.126;11.594;2023-07-08T10:53:06;23.10;99.90
7445;DHT22;3764;48.126;11.594;2023-07-08T10:55:44;23.10;99.90
7445;DHT22;3764;48.126;11.594;2023-07-08T10:58:39;23.20;99.90
7445;DHT22;3764;48.126;11.594;2023-07-08T11:01:20;23.20;99.90
7445;DHT22;3764;48.126;11.594;2023-07-08T11:04:07;23.30;99.90
7445;DHT22;3764;48.126;11.594;2023-07-08T11:06:46;23.40;99.80
7445;DHT22;3764;48.126;11.594;2023-07-08T11:09:20;23.40;99.90
7445;DHT22;3764;48.126;11.594;2023-07-08T11:11:52;23.40;99.90
7445;DHT22;3764;48.126;11.594;2023-07-08T11:14:23;23.50;99.90
7445;DHT22;3764;48.126;11.594;2023-07-08T11:16:57;23.50;99.90
7445;DHT22;3764;48.126;11.594;2023-07-08T11:19:32;23.50;99.90
7445;DHT22;3764;48.126;11.594;2023-07-08T11:22:05;23.50;99.90
7445;DHT22;3764;48.126;11.594;2023-07-08T11:24:39;23.60;99.90
7445;DHT22;3764;48.126;11.594;2023-07-08T11:27:11;23.60;99.90
7445;DHT22;3764;48.126;11.594;2023-07-08T11:29:46;23.70;99.90
7445;DHT22;3764;48.126;11.594;2023-07-08T11:32:17;23.80;99.90
7445;DHT22;3764;48.126;11.594;2023-07-08T11:34:47;23.90;99.80
7445;DHT22;3764;48.126;11.594;2023-07-08T11:37:17;23.90;99.50
7445;DHT22;3764;48.126;11.594;2023-07-08T11:39:47;24.00;99.40
7445;DHT22;3764;48.126;11.594;2023-07-08T11:42:21;24.10;99.00
7445;DHT22;3764;48.126;11.594;2023-07-08T11:44:53;24.20;99.30
7445;DHT22;3764;48.126;11.594;2023-07-08T11:47:25;24.30;99.20
7445;DHT22;3764;48.126;11.594;2023-07-08T11:49:53;24.30;99.10
7445;DHT22;3764;48.126;11.594;2023-07-08T11:52:22;24.40;98.80
7445;DHT22;3764;48.126;11.594;2023-07-08T11:54:57;24.50;99.10
7445;DHT22;3764;48.126;11.594;2023-07-08T11:57:28;24.60;99.10
7445;DHT22;3764;48.126;11.594;2023-07-08T12:00:17;24.60;98.70
7445;DHT22;3764;48.126;11.594;2023-07-08T12:02:54;24.80;98.20
7445;DHT22;3764;48.126;11.594;2023-07-08T12:05:33;24.80;98.10
7445;DHT22;3764;48.126;11.594;2023-07-08T12:08:03;24.80;97.80
7445;DHT22;3764;48.126;11.594;2023-07-08T12:10:39;24.90;97.50
7445;DHT22;3764;48.126;11.594;2023-07-08T12:13:12;24.90;97.10
7445;DHT22;3764;48.126;11.594;2023-07-08T12:15:40;25.00;97.50
7445;DHT22;3764;48.126;11.594;2023-07-08T12:18:13;25.00;96.70
7445;DHT22;3764;48.126;11.594;2023-07-08T12:20:42;25.00;95.50
7445;DHT22;3764;48.126;11.594;2023-07-08T12:23:14;25.00;95.90
7445;DHT22;3764;48.126;11.594;2023-07-08T12:25:42;25.10;96.70
7445;DHT22;3764;48.126;11.594;2023-07-08T12:28:10;25.20;97.80
7445;DHT22;3764;48.126;11.594;2023-07-08T12:30:39;25.30;96.60
7445;DHT22;3764;48.126;11.594;2023-07-08T12:33:11;25.40;96.30
7445;DHT22;3764;48.126;11.594;2023-07-08T12:35:40;25.50;95.90
7445;DHT22;3764;48.126;11.594;2023-07-08T12:38:26;25.60;95.10
7445;DHT22;3764;48.126;11.594;2023-07-08T12:40:55;25.70;95.00
7445;DHT22;3764;48.126;11.594;2023-07-08T12:43:23;25.70;94.10
7445;DHT22;3764;48.126;11.594;2023-07-08T12:45:50;25.80;94.20
7445;DHT22;3764;48.126;11.594;2023-07-08T12:48:17;25.80;94.50
7445;DHT22;3764;48.126;11.594;2023-07-08T12:50:44;25.90;94.90
7445;DHT22;3764;48.126;11.594;2023-07-08T12:53:12;25.90;95.50
7445;DHT22;3764;48.126;11.594;2023-07-08T12:55:41;25.90;96.50
7445;DHT22;3764;48.126;11.594;2023-07-08T12:58:11;25.90;95.80
7445;DHT22;3764;48.126;11.594;2023-07-08T13:00:40;25.90;95.10
7445;DHT22;3764;48.126;11.594;2023-07-08T13:03:12;26.00;94.80
7445;DHT22;3764;48.126;11.594;2023-07-08T13:05:41;26.10;94.20
7445;DHT22;3764;48.126;11.594;2023-07-08T13:08:11;26.10;94.20
7445;DHT22;3764;48.126;11.594;2023-07-08T13:10:41;26.20;93.10
7445;DHT22;3764;48.126;11.594;2023-07-08T13:13:13;26.30;92.60
7445;DHT22;3764;48.126;11.594;2023-07-08T13:15:43;26.20;93.50
7445;DHT22;3764;48.126;11.594;2023-07-08T13:18:14;26.30;92.90
7445;DHT22;3764;48.126;11.594;2023-07-08T13:20:44;26.30;92.70
7445;DHT22;3764;48.126;11.594;2023-07-08T13:23:12;26.30;93.30
7445;DHT22;3764;48.126;11.594;2023-07-08T13:25:41;26.40;93.70
7445;DHT22;3764;48.126;11.594;2023-07-08T13:28:16;26.30;95.20
7445;DHT22;3764;48.126;11.594;2023-07-08T13:30:50;26.30;95.50
7445;DHT22;3764;48.126;11.594;2023-07-08T13:33:18;26.30;95.70
7445;DHT22;3764;48.126;11.594;2023-07-08T13:35:46;26.20;93.80
7445;DHT22;3764;48.126;11.594;2023-07-08T13:38:17;26.20;93.30
7445;DHT22;3764;48.126;11.594;2023-07-08T13:40:47;26.20;93.40
7445;DHT22;3764;48.126;11.594;2023-07-08T13:43:15;26.20;93.90
7445;DHT22;3764;48.126;11.594;2023-07-08T13:45:45;26.20;94.10
7445;DHT22;3764;48.126;11.594;2023-07-08T13:48:20;26.20;93.90
7445;DHT22;3764;48.126;11.594;2023-07-08T13:50:53;26.20;94.50
7445;DHT22;3764;48.126;11.594;2023-07-08T13:53:23;26.20;93.90
7445;DHT22;3764;48.126;11.594;2023-07-08T13:56:00;26.30;92.90
7445;DHT22;3764;48.126;11.594;2023-07-08T13:58:29;26.30;94.00
7445;DHT22;3764;48.126;11.594;2023-07-08T14:00:57;26.40;94.20
7445;DHT22;3764;48.126;11.594;2023-07-08T14:03:25;26.40;94.10
7445;DHT22;3764;48.126;11.594;2023-07-08T14:05:52;26.40;94.20
7445;DHT22;3764;48.126;11.594;2023-07-08T14:08:19;26.40;94.20
7445;DHT22;3764;48.126;11.594;2023-07-08T14:10:47;26.40;94.70
7445;DHT22;3764;48.126;11.594;2023-07-08T14:13:16;26.50;94.60
7445;DHT22;3764;48.126;11.594;2023-07-08T14:15:43;26.50;94.30
7445;DHT22;3764;48.126;11.594;2023-07-08T14:18:12;26.50;94.30
7445;DHT22;3764;48.126;11.594;2023-07-08T14:20:39;26.50;94.50
7445;DHT22;3764;48.126;11.594;2023-07-08T14:23:09;26.50;95.40
7445;DHT22;3764;48.126;11.594;2023-07-08T14:25:39;26.50;94.90
7445;DHT22;3764;48.126;11.594;2023-07-08T14:28:06;26.50;95.00
7445;DHT22;3764;48.126;11.594;2023-07-08T14:30:35;26.40;95.00
7445;DHT22;3764;48.126;11.594;2023-07-08T14:33:04;26.40;94.90
7445;DHT22;3764;48.126;11.594;2023-07-08T14:35:31;26.40;94.80
7445;DHT22;3764;48.126;11.594;2023-07-08T14:37:58;26.30;94.80
7445;DHT22;3764;48.126;11.594;2023-07-08T14:40:32;26.30;93.10
7445;DHT22;3764;48.126;11.594;2023-07-08T14:43:01;26.30;92.50
7445;DHT22;3764;48.126;11.594;2023-07-08T14:45:31;26.30;93.10
7445;DHT22;3764;48.126;11.594;2023-07-08T14:48:01;26.20;93.60
7445;DHT22;3764;48.126;11.594;2023-07-08T14:50:28;26.20;93.10
7445;DHT22;3764;48.126;11.594;2023-07-08T14:52:56;26.20;92.10
7445;DHT22;3764;48.126;11.594;2023-07-08T14:55:23;26.20;92.20
7445;DHT22;3764;48.126;11.594;2023-07-08T14:57:50;26.30;92.50
7445;DHT22;3764;48.126;11.594;2023-07-08T15:00:18;26.30;92.50
7445;DHT22;3764;48.126;11.594;2023-07-08T15:02:47;26.30;92.60
7445;DHT22;3764;48.126;11.594;2023-07-08T15:05:18;26.30;91.70
7445;DHT22;3764;48.126;11.594;2023-07-08T15:07:48;26.30;91.80
7445;DHT22;3764;48.126;11.594;2023-07-08T15:10:16;26.20;91.90
7445;DHT22;3764;48.126;11.594;2023-07-08T15:12:44;26.20;91.90
7445;DHT22;3764;48.126;11.594;2023-07-08T15:15:16;26.20;91.60
7445;DHT22;3764;48.126;11.594;2023-07-08T15:17:44;26.20;91.50
7445;DHT22;3764;48.126;11.594;2023-07-08T15:20:13;26.20;91.70
7445;DHT22;3764;48.126;11.594;2023-07-08T15:22:42;26.20;91.90
7445;DHT22;3764;48.126;11.594;2023-07-08T15:25:11;26.20;95.10
7445;DHT22;3764;48.126;11.594;2023-07-08T15:27:39;26.30;95.20
7445;DHT22;3764;48.126;11.594;2023-07-08T15:30:15;26.50;95.50
7445;DHT22;3764;48.126;11.594;2023-07-08T15:32:44;26.40;95.10
7445;DHT22;3764;48.126;11.594;2023-07-08T15:35:17;26.40;94.50
7445;DHT22;3764;48.126;11.594;2023-07-08T15:37:46;26.30;94.20
7445;DHT22;3764;48.126;11.594;2023-07-08T15:40:15;26.30;93.60
7445;DHT22;3764;48.126;11.594;2023-07-08T15:42:45;26.30;93.70
7445;DHT22;3764;48.126;11.594;2023-07-08T15:45:20;26.20;91.70
7445;DHT22;3764;48.126;11.594;2023-07-08T15:47:48;26.20;93.30
7445;DHT22;3764;48.126;11.594;2023-07-08T15:50:18;26.20;92.80
7445;DHT22;3764;48.126;11.594;2023-07-08T15:52:46;26.20;93.10
7445;DHT22;3764;48.126;11.594;2023-07-08T15:55:16;26.30;94.60
7445;DHT22;3764;48.126;11.594;2023-07-08T15:57:59;26.40;95.50
7445;DHT22;3764;48.126;11.594;2023-07-08T16:00:29;26.50;95.00
7445;DHT22;3764;48.126;11.594;2023-07-08T16:02:59;26.60;94.40
7445;DHT22;3764;48.126;11.594;2023-07-08T16:05:27;26.60;94.70
7445;DHT22;3764;48.126;11.594;2023-07-08T16:07:58;26.80;91.90
7445;DHT22;3764;48.126;11.594;2023-07-08T16:10:25;26.90;91.80
7445;DHT22;3764;48.126;11.594;2023-07-08T16:12:53;27.00;90.10
7445;DHT22;3764;48.126;11.594;2023-07-08T16:15:30;27.20;91.30
7445;DHT22;3764;48.126;11.594;2023-07-08T16:17:58;27.30;90.70
7445;DHT22;3764;48.126;11.594;2023-07-08T16:20:27;27.40;90.50
7445;DHT22;3764;48.126;11.594;2023-07-08T16:22:55;27.40;89.20
7445;DHT22;3764;48.126;11.594;2023-07-08T16:25:27;27.40;90.60
7445;DHT22;3764;48.126;11.594;2023-07-08T16:27:55;27.40;91.50
7445;DHT22;3764;48.126;11.594;2023-07-08T16:30:24;27.60;90.10
7445;DHT22;3764;48.126;11.594;2023-07-08T16:32:52;27.80;90.00
7445;DHT22;3764;48.126;11.594;2023-07-08T16:35:20;28.00;88.80
7445;DHT22;3764;48.126;11.594;2023-07-08T16:37:49;28.00;89.00
7445;DHT22;3764;48.126;11.594;2023-07-08T16:40:19;28.10;90.30
7445;DHT22;3764;48.126;11.594;2023-07-08T16:42:49;28.00;91.30
7445;DHT22;3764;48.126;11.594;2023-07-08T16:45:19;27.90;88.50
7445;DHT22;3764;48.126;11.594;2023-07-08T16:47:47;27.80;87.30
7445;DHT22;3764;48.126;11.594;2023-07-08T16:50:15;27.70;88.60
7445;DHT22;3764;48.126;11.594;2023-07-08T16:52:43;27.60;85.10
7445;DHT22;3764;48.126;11.594;2023-07-08T16:55:13;27.50;86.30
7445;DHT22;3764;48.126;11.594;2023-07-08T16:57:40;27.40;88.00
7445;DHT22;3764;48.126;11.594;2023-07-08T17:00:11;27.30;86.60
7445;DHT22;3764;48.126;11.594;2023-07-08T17:02:38;27.20;87.00
7445;DHT22;3764;48.126;11.594;2023-07-08T17:05:17;27.20;92.20
7445;DHT22;3764;48.126;11.594;2023-07-08T17:07:44;27.10;92.40
7445;DHT22;3764;48.126;11.594;2023-07-08T17:10:12;27.00;93.20
7445;DHT22;3764;48.126;11.594;2023-07-08T17:12:39;26.90;94.10
7445;DHT22;3764;48.126;11.594;2023-07-08T17:15:09;26.80;94.30
7445;DHT22;3764;48.126;11.594;2023-07-08T17:17:37;26.80;95.10
7445;DHT22;3764;48.126;11.594;2023-07-08T17:20:16;26.70;95.40
7445;DHT22;3764;48.126;11.594;2023-07-08T17:22:45;26.60;91.20
7445;DHT22;3764;48.126;11.594;2023-07-08T17:25:13;26.60;93.00
7445;DHT22;3764;48.126;11.594;2023-07-08T17:27:41;26.60;93.90
7445;DHT22;3764;48.126;11.594;2023-07-08T17:30:12;26.50;94.50